ウランバートル の空港の天気 - METARとTAF

チンギスハーン国際空港 ( ZMUB / ULN ) - モンゴル ウランバートル
飛行場実況気象(Metar)
観測時間07/23 02:00 ULAT (07/22 18:00 UTC)
風向・風速静穏 0m/s
視程10km以上
天気現象弱いしゅう雨
全天の4割程度の雲 雲底高度 910m
全天の8割程度の雲 雲底高度 1010m
気温15℃
湿度82%
気圧1013hPa
METARZMUB 221800Z 00000MPS 9999 -SHRA SCT030CB BKN033 15/12 Q1013 NOSIG RMK QFE653.1 83 NT
過去の天気等 Google飛行場航空写真 Wunderground天気予報

過去48時間のMETAR

飛行場予報(TAF)
発表時間: 7/23 00:40 ULAT (7/22 16:40 UTC)
予報対象時間: 23日2時 ULAT ~ 24日8時 ULAT
風向・風速不定 2m/s
視程10km以上
少しの積乱雲 雲底高度 910m
全天の4割程度の雲 雲底高度 1010m
23日2時 ULAT ~ 23日6時 ULAT に一時的に
風向・風速不定 8m/s
天気現象雷 しゅう雨
全天の4割程度の積乱雲 雲底高度 910m
全天の4割程度の雲 雲底高度 1010m
23日6時 ULAT ~ 23日8時 ULAT に徐々に
風向・風速南南東 7m/s
23日12時 ULAT ~ 23日14時 ULAT に徐々に
風向・風速不定 2m/s
23日13時 ULAT ~ 23日20時 ULAT に一時的に
風向・風速不定 8m/s
天気現象雷 しゅう雨
全天の4割程度の積乱雲 雲底高度 910m
全天の4割程度の雲 雲底高度 1010m
TAF ZMUB 221640Z 2218/2324 VRB02MPS 9999 FEW030CB SCT033 TN14/2221Z TX26/2307Z
TEMPO 2218/2222 VRB08MPS TS SHRA SCT030CB SCT033
BECMG 2222/2224 16007MPS
BECMG 2304/2306 VRB02MPS
TEMPO 2305/2312 VRB08MPS TS SHRA SCT030CB SCT033